sim
Sign-in with your pilot id or email,
or register
Callsign
Passwort

Schedule Details

Flight Number: DLH1794 (1)
Departure: Munich Airport (EDDM) at 10:25
Arrival: Porto Francisco de Sa Carneiro Airport (LPPR) at 13:20
Route: Lufthansa Passenger Schedule. Enter filed route here before submitting Pirep.

Weather Information
Getting current METAR information for EDDM 231650Z 26004KT 230V290 CAVOK 18/15 Q1009 NOSIG
Getting current METAR information for LPPR 231700Z 29005KT 250V320 9999 FEW015 20/16 Q1014

Schedule Frequency

Route Map